Wetterdaten vom Mittwoch, 29. September 2021

Temperatur Taupunkt Windchill Luftfeuchte Luftdruck Solarstrahlung Regen ET
(Verdunstung von Wasser)
Wind
Max 19.3 °C
13:00
14.3 °C
01:30
19.2 °C
12:55
94%
07:10
1021.8 hPa
09:45
762 W/m²
13:30
20.4 km/h
01:55 km/h
Durchschnitt 14.4 °C 10.6 °C 14.3 °C 79% 1019.4 hPa 259 W/m² 1.5 mm 1.956 mm 3 km/h
Min 9.8 °C
23:35
7.9 °C
22:35
9.3 °C
01:55
56%
14:35
1016.1 hPa
00:05
0 km/h (Böe)
00:05 km/h
Zeit
00:00 15.9 °C 14.3 °C 15.9 °C 90% 1016.2 hPa 0 W/m² 0.0 mm 0.000 mm 0.2 km/h
00:05 15.9 °C 14.3 °C 15.9 °C 90% 1016.1 hPa 0 W/m² 0.0 mm 0.000 mm 0.0 km/h
00:10 15.9 °C 14.3 °C 15.9 °C 90% 1016.2 hPa 0 W/m² 0.0 mm 0.000 mm 0.0 km/h
00:15 15.9 °C 14.3 °C 15.9 °C 90% 1016.2 hPa 0 W/m² 0.0 mm 0.000 mm 0.0 km/h
00:20 15.9 °C 14.3 °C 15.9 °C 90% 1016.2 hPa 0 W/m² 0.0 mm 0.000 mm 0.0 km/h
00:25 15.9 °C 14.3 °C 15.9 °C 90% 1016.1 hPa 0 W/m² 0.0 mm 0.000 mm 0.0 km/h
00:30 15.9 °C 14.3 °C 15.9 °C 90% 1016.2 hPa 0 W/m² 0.0 mm 0.000 mm 0.0 km/h
00:35 15.9 °C 14.3 °C 15.9 °C 90% 1016.3 hPa 0 W/m² 0.0 mm 0.000 mm 0.0 km/h
00:40 15.8 °C 14.2 °C 15.8 °C 90% 1016.3 hPa 0 W/m² 0.0 mm 0.000 mm 0.0 km/h
00:45 15.8 °C 14.2 °C 15.8 °C 90% 1016.3 hPa 0 W/m² 0.0 mm 0.000 mm 0.0 km/h
00:50 15.8 °C 14.2 °C 15.8 °C 90% 1016.3 hPa 0 W/m² 0.0 mm 0.000 mm 0.0 km/h
00:55 15.7 °C 14.1 °C 15.7 °C 90% 1016.3 hPa 0 W/m² 0.0 mm 0.000 mm 0.0 km/h
01:00 15.7 °C 14.1 °C 15.7 °C 90% 1016.3 hPa 0 W/m² 0.0 mm 0.000 mm 0.2 km/h
01:05 15.6 °C 14.0 °C 15.6 °C 90% 1016.4 hPa 0 W/m² 0.0 mm 0.000 mm 0.5 km/h
01:10 15.6 °C 14.1 °C 15.6 °C 91% 1016.5 hPa 0 W/m² 0.0 mm 0.000 mm 0.2 km/h
01:15 15.6 °C 14.1 °C 15.6 °C 91% 1016.7 hPa 0 W/m² 0.0 mm 0.000 mm 0.9 km/h
01:20 15.6 °C 14.1 °C 15.6 °C 91% 1016.8 hPa 0 W/m² 0.0 mm 0.000 mm 2.6 km/h
01:25 15.6 °C 14.1 °C 15.6 °C 91% 1017.0 hPa 0 W/m² 0.0 mm 0.000 mm 4.4 km/h
01:30 15.8 °C 14.3 °C 12.9 °C 91% 1017.1 hPa 0 W/m² 0.0 mm 0.000 mm 12.9 km/h
01:35 15.8 °C 13.8 °C 12.5 °C 88% 1017.3 hPa 0 W/m² 0.0 mm 0.000 mm 13.9 km/h
01:40 15.7 °C 13.5 °C 11.2 °C 87% 1017.4 hPa 0 W/m² 0.0 mm 0.000 mm 17.8 km/h
01:45 15.5 °C 13.5 °C 11.2 °C 88% 1017.6 hPa 0 W/m² 0.3 mm 0.000 mm 17.1 km/h
01:50 15.3 °C 13.3 °C 12.0 °C 88% 1017.7 hPa 0 W/m² 0.0 mm 0.000 mm 13.6 km/h
01:55 14.7 °C 12.6 °C 9.3 °C 87% 1017.9 hPa 0 W/m² 0.3 mm 0.000 mm 20.4 km/h
02:00 14.3 °C 12.3 °C 10.1 °C 88% 1018.1 hPa 0 W/m² 0.0 mm 0.025 mm 15.6 km/h
02:05 14.1 °C 12.3 °C 11.6 °C 89% 1018.2 hPa 0 W/m² 0.0 mm 0.000 mm 11.1 km/h
02:10 13.8 °C 12.0 °C 11.8 °C 89% 1018.3 hPa 0 W/m² 0.0 mm 0.000 mm 10.0 km/h
02:15 13.7 °C 12.1 °C 12.1 °C 90% 1018.4 hPa 0 W/m² 0.0 mm 0.000 mm 9.1 km/h
02:20 13.6 °C 12.0 °C 12.2 °C 90% 1018.5 hPa 0 W/m² 0.0 mm 0.000 mm 8.8 km/h
02:25 13.4 °C 12.0 °C 13.4 °C 91% 1018.5 hPa 0 W/m² 0.0 mm 0.000 mm 5.1 km/h
02:30 13.4 °C 12.0 °C 13.4 °C 91% 1018.5 hPa 0 W/m² 0.0 mm 0.000 mm 6.1 km/h
02:35 13.3 °C 11.9 °C 13.3 °C 91% 1018.5 hPa 0 W/m² 0.0 mm 0.000 mm 5.9 km/h
02:40 13.3 °C 11.9 °C 13.1 °C 91% 1018.6 hPa 0 W/m² 0.0 mm 0.000 mm 6.7 km/h
02:45 13.3 °C 12.0 °C 12.9 °C 92% 1018.7 hPa 0 W/m² 0.3 mm 0.000 mm 7.0 km/h
02:50 13.3 °C 12.0 °C 11.9 °C 92% 1018.8 hPa 0 W/m² 0.0 mm 0.000 mm 8.7 km/h
02:55 13.3 °C 12.0 °C 12.7 °C 92% 1018.9 hPa 0 W/m² 0.0 mm 0.000 mm 7.4 km/h
03:00 13.2 °C 11.8 °C 13.2 °C 91% 1018.9 hPa 0 W/m² 0.0 mm 0.026 mm 4.2 km/h
03:05 13.2 °C 11.8 °C 13.2 °C 91% 1019.0 hPa 0 W/m² 0.0 mm 0.000 mm 4.9 km/h
03:10 13.1 °C 11.7 °C 12.0 °C 91% 1019.1 hPa 0 W/m² 0.0 mm 0.000 mm 8.2 km/h
03:15 13.1 °C 11.5 °C 12.1 °C 90% 1019.0 hPa 0 W/m² 0.0 mm 0.000 mm 8.0 km/h
03:20 13.0 °C 11.4 °C 12.4 °C 90% 1019.0 hPa 0 W/m² 0.0 mm 0.000 mm 7.4 km/h
03:25 12.9 °C 11.3 °C 12.9 °C 90% 1019.2 hPa 0 W/m² 0.0 mm 0.000 mm 6.0 km/h
03:30 12.9 °C 11.3 °C 12.9 °C 90% 1019.0 hPa 0 W/m² 0.0 mm 0.000 mm 3.7 km/h
03:35 12.8 °C 11.2 °C 12.8 °C 90% 1019.1 hPa 0 W/m² 0.3 mm 0.000 mm 3.9 km/h
03:40 12.8 °C 11.4 °C 12.8 °C 91% 1019.2 hPa 0 W/m² 0.0 mm 0.000 mm 3.7 km/h
03:45 12.8 °C 11.4 °C 12.8 °C 91% 1019.3 hPa 0 W/m² 0.0 mm 0.000 mm 2.8 km/h
03:50 12.7 °C 11.3 °C 12.7 °C 91% 1019.3 hPa 0 W/m² 0.0 mm 0.000 mm 6.2 km/h
03:55 12.7 °C 11.3 °C 12.7 °C 91% 1019.3 hPa 0 W/m² 0.0 mm 0.000 mm 3.7 km/h
04:00 12.6 °C 11.3 °C 12.6 °C 92% 1019.4 hPa 0 W/m² 0.3 mm 0.000 mm 3.0 km/h
04:05 12.6 °C 11.3 °C 12.6 °C 92% 1019.4 hPa 0 W/m² 0.0 mm 0.000 mm 2.6 km/h
04:10 12.6 °C 11.3 °C 12.6 °C 92% 1019.5 hPa 0 W/m² 0.0 mm 0.000 mm 1.7 km/h
04:15 12.5 °C 11.2 °C 12.5 °C 92% 1019.6 hPa 0 W/m² 0.0 mm 0.000 mm 3.2 km/h
04:20 12.4 °C 11.1 °C 12.4 °C 92% 1019.5 hPa 0 W/m² 0.0 mm 0.000 mm 4.5 km/h
04:25 12.4 °C 11.1 °C 12.4 °C 92% 1019.5 hPa 0 W/m² 0.0 mm 0.000 mm 4.5 km/h
04:30 12.4 °C 11.3 °C 12.4 °C 93% 1019.5 hPa 0 W/m² 0.0 mm 0.000 mm 4.5 km/h
04:35 12.4 °C 11.3 °C 12.1 °C 93% 1019.7 hPa 0 W/m² 0.0 mm 0.000 mm 6.9 km/h
04:40 12.3 °C 11.2 °C 12.3 °C 93% 1019.8 hPa 0 W/m² 0.0 mm 0.000 mm 5.5 km/h
04:45 12.3 °C 11.2 °C 12.3 °C 93% 1019.8 hPa 0 W/m² 0.0 mm 0.000 mm 3.3 km/h
04:50 12.3 °C 11.2 °C 12.3 °C 93% 1019.8 hPa 0 W/m² 0.0 mm 0.000 mm 5.6 km/h
04:55 12.3 °C 11.2 °C 12.3 °C 93% 1019.9 hPa 0 W/m² 0.0 mm 0.000 mm 5.4 km/h
05:00 12.3 °C 11.2 °C 12.3 °C 93% 1020.0 hPa 0 W/m² 0.0 mm 0.000 mm 5.8 km/h
05:05 12.3 °C 11.2 °C 12.3 °C 93% 1020.0 hPa 0 W/m² 0.0 mm 0.000 mm 6.0 km/h
05:10 12.2 °C 11.1 °C 12.2 °C 93% 1020.1 hPa 0 W/m² 0.0 mm 0.000 mm 5.9 km/h
05:15 12.2 °C 11.1 °C 12.2 °C 93% 1020.1 hPa 0 W/m² 0.0 mm 0.000 mm 5.1 km/h
05:20 12.1 °C 11.0 °C 12.1 °C 93% 1020.0 hPa 0 W/m² 0.0 mm 0.000 mm 2.3 km/h
05:25 12.1 °C 11.0 °C 12.1 °C 93% 1020.1 hPa 0 W/m² 0.0 mm 0.000 mm 4.2 km/h
05:30 12.0 °C 10.9 °C 12.0 °C 93% 1020.2 hPa 0 W/m² 0.0 mm 0.000 mm 3.8 km/h
05:35 11.9 °C 10.8 °C 11.9 °C 93% 1020.2 hPa 0 W/m² 0.0 mm 0.000 mm 1.8 km/h
05:40 11.8 °C 10.7 °C 11.8 °C 93% 1020.4 hPa 0 W/m² 0.0 mm 0.000 mm 3.5 km/h
05:45 11.8 °C 10.7 °C 11.8 °C 93% 1020.3 hPa 0 W/m² 0.0 mm 0.000 mm 3.3 km/h
05:50 11.7 °C 10.6 °C 11.7 °C 93% 1020.4 hPa 0 W/m² 0.0 mm 0.000 mm 3.5 km/h
05:55 11.7 °C 10.6 °C 11.7 °C 93% 1020.5 hPa 0 W/m² 0.0 mm 0.000 mm 3.2 km/h
06:00 11.7 °C 10.6 °C 11.7 °C 93% 1020.5 hPa 0 W/m² 0.0 mm 0.000 mm 3.2 km/h
06:05 11.6 °C 10.5 °C 11.6 °C 93% 1020.4 hPa 0 W/m² 0.0 mm 0.000 mm 3.1 km/h
06:10 11.5 °C 10.4 °C 11.5 °C 93% 1020.5 hPa 0 W/m² 0.0 mm 0.000 mm 1.5 km/h
06:15 11.4 °C 10.3 °C 11.4 °C 93% 1020.5 hPa 0 W/m² 0.0 mm 0.000 mm 1.3 km/h
06:20 11.4 °C 10.3 °C 11.4 °C 93% 1020.5 hPa 0 W/m² 0.0 mm 0.000 mm 2.1 km/h
06:25 11.3 °C 10.2 °C 11.3 °C 93% 1020.5 hPa 0 W/m² 0.0 mm 0.000 mm 1.5 km/h
06:30 11.3 °C 10.2 °C 11.3 °C 93% 1020.6 hPa 0 W/m² 0.0 mm 0.000 mm 3.3 km/h
06:35 11.2 °C 10.1 °C 11.2 °C 93% 1020.6 hPa 0 W/m² 0.0 mm 0.000 mm 1.8 km/h
06:40 11.1 °C 10.0 °C 11.1 °C 93% 1020.5 hPa 0 W/m² 0.0 mm 0.000 mm 2.3 km/h
06:45 11.1 °C 10.0 °C 11.1 °C 93% 1020.6 hPa 0 W/m² 0.0 mm 0.000 mm 0.9 km/h
06:50 11.0 °C 9.9 °C 11.0 °C 93% 1020.7 hPa 0 W/m² 0.0 mm 0.000 mm 0.1 km/h
06:55 10.9 °C 9.8 °C 10.9 °C 93% 1020.6 hPa 0 W/m² 0.0 mm 0.000 mm 1.1 km/h
07:00 10.9 °C 9.8 °C 10.9 °C 93% 1020.6 hPa 0 W/m² 0.0 mm 0.000 mm 2.7 km/h
07:05 10.9 °C 9.8 °C 10.9 °C 93% 1020.7 hPa 0 W/m² 0.0 mm 0.000 mm 5.2 km/h
07:10 10.8 °C 9.9 °C 10.8 °C 94% 1020.8 hPa 0 W/m² 0.0 mm 0.000 mm 4.1 km/h
07:15 10.8 °C 9.7 °C 10.8 °C 93% 1020.8 hPa 5 W/m² 0.0 mm 0.000 mm 4.1 km/h
07:20 10.7 °C 9.6 °C 10.7 °C 93% 1020.8 hPa 5 W/m² 0.0 mm 0.000 mm 3.0 km/h
07:25 10.7 °C 9.6 °C 10.7 °C 93% 1020.9 hPa 9 W/m² 0.0 mm 0.000 mm 4.4 km/h
07:30 10.6 °C 9.5 °C 10.6 °C 93% 1021.0 hPa 12 W/m² 0.0 mm 0.000 mm 1.7 km/h
07:35 10.6 °C 9.5 °C 10.6 °C 93% 1020.9 hPa 16 W/m² 0.0 mm 0.000 mm 0.9 km/h
07:40 10.6 °C 9.7 °C 10.6 °C 94% 1021.0 hPa 24 W/m² 0.0 mm 0.000 mm 4.2 km/h
07:45 10.6 °C 9.7 °C 10.6 °C 94% 1021.1 hPa 34 W/m² 0.0 mm 0.000 mm 3.6 km/h
07:50 10.7 °C 9.8 °C 10.7 °C 94% 1021.2 hPa 45 W/m² 0.0 mm 0.000 mm 1.1 km/h
07:55 10.8 °C 9.9 °C 10.8 °C 94% 1021.3 hPa 59 W/m² 0.0 mm 0.000 mm 0.9 km/h
08:00 11.0 °C 10.1 °C 11.0 °C 94% 1021.2 hPa 69 W/m² 0.0 mm 0.025 mm 1.3 km/h
08:05 11.2 °C 10.3 °C 11.2 °C 94% 1021.3 hPa 77 W/m² 0.0 mm 0.000 mm 0.8 km/h
08:10 11.3 °C 10.4 °C 11.3 °C 94% 1021.4 hPa 101 W/m² 0.0 mm 0.000 mm 0.6 km/h
08:15 11.5 °C 10.6 °C 11.5 °C 94% 1021.4 hPa 112 W/m² 0.0 mm 0.000 mm 0.8 km/h
08:20 11.7 °C 10.6 °C 11.7 °C 93% 1021.4 hPa 117 W/m² 0.0 mm 0.000 mm 1.8 km/h
08:25 11.8 °C 10.7 °C 11.8 °C 93% 1021.5 hPa 141 W/m² 0.0 mm 0.000 mm 2.9 km/h
08:30 12.0 °C 10.9 °C 12.0 °C 93% 1021.5 hPa 158 W/m² 0.0 mm 0.000 mm 0.4 km/h
08:35 12.2 °C 10.9 °C 12.2 °C 92% 1021.5 hPa 178 W/m² 0.0 mm 0.000 mm 1.8 km/h
08:40 12.6 °C 11.3 °C 12.6 °C 92% 1021.5 hPa 185 W/m² 0.0 mm 0.000 mm 1.4 km/h
08:45 12.8 °C 11.2 °C 12.8 °C 90% 1021.5 hPa 182 W/m² 0.0 mm 0.000 mm 1.9 km/h
08:50 13.2 °C 11.6 °C 13.2 °C 90% 1021.5 hPa 166 W/m² 0.0 mm 0.000 mm 1.8 km/h
08:55 13.4 °C 11.6 °C 13.4 °C 89% 1021.5 hPa 176 W/m² 0.0 mm 0.000 mm 2.3 km/h
09:00 13.7 °C 11.7 °C 13.7 °C 88% 1021.5 hPa 191 W/m² 0.0 mm 0.076 mm 2.0 km/h
09:05 13.9 °C 11.8 °C 13.9 °C 87% 1021.5 hPa 177 W/m² 0.0 mm 0.000 mm 1.6 km/h
09:10 14.1 °C 11.8 °C 14.1 °C 86% 1021.6 hPa 219 W/m² 0.0 mm 0.000 mm 2.8 km/h
09:15 14.2 °C 11.9 °C 14.2 °C 86% 1021.6 hPa 228 W/m² 0.0 mm 0.000 mm 3.6 km/h
09:20 14.3 °C 11.6 °C 14.0 °C 84% 1021.5 hPa 234 W/m² 0.0 mm 0.000 mm 6.9 km/h
09:25 14.3 °C 11.8 °C 14.3 °C 85% 1021.5 hPa 238 W/m² 0.0 mm 0.000 mm 5.6 km/h
09:30 14.4 °C 12.1 °C 14.4 °C 86% 1021.5 hPa 275 W/m² 0.0 mm 0.000 mm 5.8 km/h
09:35 14.5 °C 11.6 °C 14.5 °C 83% 1021.6 hPa 301 W/m² 0.0 mm 0.000 mm 5.6 km/h
09:40 14.7 °C 12.2 °C 14.7 °C 85% 1021.6 hPa 294 W/m² 0.0 mm 0.000 mm 4.4 km/h
09:45 14.9 °C 12.2 °C 14.9 °C 84% 1021.8 hPa 296 W/m² 0.0 mm 0.000 mm 4.5 km/h
09:50 15.1 °C 12.0 °C 14.8 °C 82% 1021.8 hPa 312 W/m² 0.0 mm 0.000 mm 6.9 km/h
09:55 14.9 °C 11.9 °C 14.5 °C 82% 1021.8 hPa 354 W/m² 0.0 mm 0.000 mm 7.1 km/h
10:00 14.9 °C 11.7 °C 13.9 °C 81% 1021.8 hPa 328 W/m² 0.0 mm 0.153 mm 8.2 km/h
10:05 14.9 °C 12.4 °C 14.9 °C 85% 1021.8 hPa 367 W/m² 0.0 mm 0.000 mm 4.2 km/h
10:10 15.2 °C 12.1 °C 15.1 °C 82% 1021.8 hPa 322 W/m² 0.0 mm 0.000 mm 6.6 km/h
10:15 15.5 °C 12.3 °C 15.5 °C 81% 1021.7 hPa 431 W/m² 0.0 mm 0.000 mm 5.3 km/h
10:20 15.7 °C 11.9 °C 15.7 °C 78% 1021.8 hPa 224 W/m² 0.0 mm 0.000 mm 4.7 km/h
10:25 15.4 °C 11.6 °C 15.4 °C 78% 1021.7 hPa 196 W/m² 0.0 mm 0.000 mm 5.5 km/h
10:30 15.4 °C 12.0 °C 15.4 °C 80% 1021.7 hPa 372 W/m² 0.0 mm 0.000 mm 5.0 km/h
10:35 15.7 °C 12.1 °C 15.7 °C 79% 1021.6 hPa 441 W/m² 0.0 mm 0.000 mm 4.9 km/h
10:40 16.0 °C 12.7 °C 16.0 °C 81% 1021.7 hPa 280 W/m² 0.0 mm 0.000 mm 3.5 km/h
10:45 16.3 °C 12.5 °C 16.3 °C 78% 1021.6 hPa 399 W/m² 0.0 mm 0.000 mm 4.1 km/h
10:50 16.3 °C 11.9 °C 16.3 °C 75% 1021.6 hPa 290 W/m² 0.0 mm 0.000 mm 4.8 km/h
10:55 16.5 °C 12.5 °C 16.5 °C 77% 1021.6 hPa 456 W/m² 0.0 mm 0.000 mm 2.9 km/h
11:00 16.7 °C 12.0 °C 16.7 °C 74% 1021.7 hPa 321 W/m² 0.0 mm 0.203 mm 4.7 km/h
11:05 16.6 °C 11.9 °C 16.6 °C 74% 1021.7 hPa 209 W/m² 0.0 mm 0.000 mm 3.1 km/h
11:10 16.8 °C 12.1 °C 16.8 °C 74% 1021.6 hPa 443 W/m² 0.0 mm 0.000 mm 2.4 km/h
11:15 16.9 °C 12.0 °C 16.9 °C 73% 1021.6 hPa 321 W/m² 0.0 mm 0.000 mm 3.5 km/h
11:20 16.9 °C 12.6 °C 16.9 °C 76% 1021.5 hPa 333 W/m² 0.0 mm 0.000 mm 2.2 km/h
11:25 17.2 °C 12.7 °C 17.2 °C 75% 1021.4 hPa 484 W/m² 0.0 mm 0.000 mm 3.2 km/h
11:30 17.5 °C 12.2 °C 17.5 °C 71% 1021.4 hPa 435 W/m² 0.0 mm 0.000 mm 3.4 km/h
11:35 17.6 °C 12.3 °C 17.6 °C 71% 1021.4 hPa 248 W/m² 0.0 mm 0.000 mm 3.1 km/h
11:40 17.3 °C 11.6 °C 17.3 °C 69% 1021.3 hPa 270 W/m² 0.0 mm 0.000 mm 2.9 km/h
11:45 17.4 °C 12.7 °C 17.4 °C 74% 1021.3 hPa 600 W/m² 0.0 mm 0.000 mm 3.1 km/h
11:50 17.7 °C 12.6 °C 17.7 °C 72% 1021.3 hPa 484 W/m² 0.0 mm 0.000 mm 2.7 km/h
11:55 17.7 °C 11.7 °C 17.7 °C 68% 1021.2 hPa 170 W/m² 0.0 mm 0.000 mm 3.6 km/h
12:00 17.4 °C 11.7 °C 17.4 °C 69% 1021.2 hPa 156 W/m² 0.0 mm 0.203 mm 1.4 km/h
12:05 17.2 °C 11.5 °C 17.2 °C 69% 1021.1 hPa 193 W/m² 0.0 mm 0.000 mm 0.4 km/h
12:10 17.3 °C 12.0 °C 17.3 °C 71% 1021.2 hPa 549 W/m² 0.0 mm 0.000 mm 0.5 km/h
12:15 17.8 °C 11.8 °C 17.8 °C 68% 1021.1 hPa 575 W/m² 0.0 mm 0.000 mm 1.3 km/h
12:20 18.2 °C 12.0 °C 18.2 °C 67% 1021.1 hPa 651 W/m² 0.0 mm 0.000 mm 3.3 km/h
12:25 18.4 °C 11.9 °C 18.4 °C 66% 1021.1 hPa 529 W/m² 0.0 mm 0.000 mm 5.3 km/h
12:30 18.2 °C 11.3 °C 18.2 °C 64% 1021.0 hPa 214 W/m² 0.0 mm 0.000 mm 4.0 km/h
12:35 17.9 °C 11.2 °C 17.9 °C 65% 1021.0 hPa 230 W/m² 0.0 mm 0.000 mm 2.7 km/h
12:40 18.3 °C 12.1 °C 18.3 °C 67% 1021.0 hPa 662 W/m² 0.0 mm 0.000 mm 1.3 km/h
12:45 18.8 °C 12.3 °C 18.8 °C 66% 1020.9 hPa 671 W/m² 0.0 mm 0.000 mm 1.9 km/h
12:50 19.1 °C 11.9 °C 19.1 °C 63% 1020.9 hPa 651 W/m² 0.0 mm 0.000 mm 1.8 km/h
12:55 19.2 °C 12.0 °C 19.2 °C 63% 1020.9 hPa 318 W/m² 0.0 mm 0.000 mm 2.9 km/h
13:00 19.2 °C 11.7 °C 19.2 °C 62% 1020.9 hPa 308 W/m² 0.0 mm 0.280 mm 2.1 km/h
13:05 18.8 °C 10.1 °C 18.8 °C 57% 1020.8 hPa 226 W/m² 0.0 mm 0.000 mm 4.1 km/h
13:10 18.4 °C 11.0 °C 18.4 °C 62% 1020.8 hPa 370 W/m² 0.0 mm 0.000 mm 2.2 km/h
13:15 18.3 °C 10.1 °C 18.3 °C 59% 1020.7 hPa 462 W/m² 0.0 mm 0.000 mm 2.1 km/h
13:20 18.3 °C 10.4 °C 18.3 °C 60% 1020.6 hPa 472 W/m² 0.0 mm 0.000 mm 1.9 km/h
13:25 18.6 °C 10.4 °C 18.6 °C 59% 1020.6 hPa 686 W/m² 0.0 mm 0.000 mm 1.6 km/h
13:30 18.9 °C 11.0 °C 18.9 °C 60% 1020.5 hPa 762 W/m² 0.0 mm 0.000 mm 3.9 km/h
13:35 19.0 °C 11.8 °C 19.0 °C 63% 1020.4 hPa 569 W/m² 0.0 mm 0.000 mm 5.4 km/h
13:40 19.1 °C 11.4 °C 19.1 °C 61% 1020.4 hPa 240 W/m² 0.0 mm 0.000 mm 2.3 km/h
13:45 19.0 °C 11.6 °C 19.0 °C 62% 1020.3 hPa 194 W/m² 0.0 mm 0.000 mm 1.8 km/h
13:50 18.8 °C 11.6 °C 18.8 °C 63% 1020.3 hPa 182 W/m² 0.0 mm 0.000 mm 2.0 km/h
13:55 18.4 °C 10.5 °C 18.4 °C 60% 1020.2 hPa 180 W/m² 0.0 mm 0.000 mm 1.9 km/h
14:00 18.3 °C 10.6 °C 18.3 °C 61% 1020.2 hPa 385 W/m² 0.0 mm 0.254 mm 2.9 km/h
14:05 18.4 °C 11.0 °C 18.4 °C 62% 1020.1 hPa 597 W/m² 0.0 mm 0.000 mm 0.8 km/h
14:10 18.8 °C 11.6 °C 18.8 °C 63% 1020.1 hPa 571 W/m² 0.0 mm 0.000 mm 2.0 km/h
14:15 19.1 °C 11.1 °C 19.1 °C 60% 1020.1 hPa 540 W/m² 0.0 mm 0.000 mm 1.7 km/h
14:20 18.9 °C 11.2 °C 18.9 °C 61% 1020.0 hPa 454 W/m² 0.0 mm 0.000 mm 4.7 km/h
14:25 18.6 °C 11.2 °C 18.6 °C 62% 1020.0 hPa 177 W/m² 0.0 mm 0.000 mm 0.1 km/h
14:30 18.3 °C 10.9 °C 18.3 °C 62% 1020.0 hPa 185 W/m² 0.0 mm 0.000 mm 0.3 km/h
14:35 18.1 °C 9.2 °C 18.1 °C 56% 1019.8 hPa 412 W/m² 0.0 mm 0.000 mm 2.4 km/h
14:40 18.1 °C 9.7 °C 18.1 °C 58% 1019.8 hPa 497 W/m² 0.0 mm 0.000 mm 2.1 km/h
14:45 18.2 °C 10.1 °C 18.2 °C 59% 1019.7 hPa 428 W/m² 0.0 mm 0.000 mm 2.9 km/h
14:50 18.2 °C 9.3 °C 18.2 °C 56% 1019.6 hPa 440 W/m² 0.0 mm 0.000 mm 4.1 km/h
14:55 18.2 °C 9.3 °C 18.2 °C 56% 1019.7 hPa 440 W/m² 0.0 mm 0.000 mm 6.0 km/h
15:00 18.1 °C 9.2 °C 18.1 °C 56% 1019.7 hPa 449 W/m² 0.0 mm 0.254 mm 5.3 km/h
15:05 18.0 °C 9.1 °C 18.0 °C 56% 1019.6 hPa 478 W/m² 0.0 mm 0.000 mm 5.0 km/h
15:10 17.9 °C 9.0 °C 17.7 °C 56% 1019.6 hPa 465 W/m² 0.0 mm 0.000 mm 6.8 km/h
15:15 18.1 °C 9.7 °C 18.1 °C 58% 1019.6 hPa 367 W/m² 0.0 mm 0.000 mm 1.9 km/h
15:20 17.9 °C 9.3 °C 17.6 °C 57% 1019.6 hPa 235 W/m² 0.0 mm 0.000 mm 7.1 km/h
15:25 17.8 °C 9.9 °C 17.8 °C 60% 1019.5 hPa 213 W/m² 0.0 mm 0.000 mm 2.6 km/h
15:30 17.7 °C 9.8 °C 17.7 °C 60% 1019.4 hPa 194 W/m² 0.0 mm 0.000 mm 0.4 km/h
15:35 17.7 °C 10.1 °C 17.7 °C 61% 1019.4 hPa 179 W/m² 0.0 mm 0.000 mm 0.2 km/h
15:40 17.7 °C 9.3 °C 17.7 °C 58% 1019.3 hPa 203 W/m² 0.0 mm 0.000 mm 2.0 km/h
15:45 17.6 °C 8.7 °C 17.6 °C 56% 1019.3 hPa 343 W/m² 0.0 mm 0.000 mm 3.6 km/h
15:50 17.7 °C 8.8 °C 17.7 °C 56% 1019.3 hPa 335 W/m² 0.0 mm 0.000 mm 2.7 km/h
15:55 17.7 °C 9.1 °C 17.7 °C 57% 1019.3 hPa 278 W/m² 0.0 mm 0.000 mm 0.6 km/h
16:00 17.7 °C 9.1 °C 17.3 °C 57% 1019.2 hPa 263 W/m² 0.0 mm 0.177 mm 7.3 km/h
16:05 17.6 °C 9.0 °C 17.6 °C 57% 1019.2 hPa 255 W/m² 0.0 mm 0.000 mm 6.2 km/h
16:10 17.5 °C 8.9 °C 17.5 °C 57% 1019.2 hPa 234 W/m² 0.0 mm 0.000 mm 5.0 km/h
16:15 17.4 °C 9.6 °C 17.3 °C 60% 1019.1 hPa 224 W/m² 0.0 mm 0.000 mm 6.7 km/h
16:20 17.3 °C 9.0 °C 16.8 °C 58% 1019.0 hPa 228 W/m² 0.0 mm 0.000 mm 7.4 km/h
16:25 17.2 °C 8.9 °C 17.2 °C 58% 1019.0 hPa 230 W/m² 0.0 mm 0.000 mm 5.3 km/h
16:30 17.2 °C 8.6 °C 16.7 °C 57% 1018.9 hPa 197 W/m² 0.0 mm 0.000 mm 7.4 km/h
16:35 17.1 °C 9.0 °C 17.1 °C 59% 1018.9 hPa 217 W/m² 0.0 mm 0.000 mm 6.3 km/h
16:40 17.1 °C 8.8 °C 17.1 °C 58% 1018.8 hPa 220 W/m² 0.0 mm 0.000 mm 5.8 km/h
16:45 17.1 °C 8.5 °C 17.1 °C 57% 1018.8 hPa 191 W/m² 0.0 mm 0.000 mm 6.0 km/h
16:50 17.1 °C 9.3 °C 17.1 °C 60% 1018.6 hPa 170 W/m² 0.0 mm 0.000 mm 0.2 km/h
16:55 17.2 °C 9.6 °C 17.2 °C 61% 1018.7 hPa 160 W/m² 0.0 mm 0.000 mm 3.3 km/h
17:00 17.3 °C 9.0 °C 17.3 °C 58% 1018.6 hPa 152 W/m² 0.0 mm 0.153 mm 2.1 km/h
17:05 17.3 °C 9.5 °C 17.3 °C 60% 1018.5 hPa 135 W/m² 0.0 mm 0.000 mm 1.6 km/h
17:10 17.3 °C 9.2 °C 17.3 °C 59% 1018.5 hPa 115 W/m² 0.0 mm 0.000 mm 1.4 km/h
17:15 17.3 °C 9.2 °C 17.3 °C 59% 1018.5 hPa 104 W/m² 0.0 mm 0.000 mm 2.5 km/h
17:20 17.2 °C 8.9 °C 16.9 °C 58% 1018.5 hPa 98 W/m² 0.0 mm 0.000 mm 7.0 km/h
17:25 16.9 °C 8.6 °C 16.2 °C 58% 1018.5 hPa 96 W/m² 0.0 mm 0.000 mm 7.7 km/h
17:30 16.8 °C 9.0 °C 16.8 °C 60% 1018.5 hPa 102 W/m² 0.0 mm 0.000 mm 6.2 km/h
17:35 16.8 °C 9.2 °C 16.8 °C 61% 1018.5 hPa 103 W/m² 0.0 mm 0.000 mm 4.4 km/h
17:40 16.7 °C 9.1 °C 16.7 °C 61% 1018.5 hPa 108 W/m² 0.0 mm 0.000 mm 4.5 km/h
17:45 16.7 °C 8.9 °C 16.7 °C 60% 1018.5 hPa 127 W/m² 0.0 mm 0.000 mm 3.1 km/h
17:50 16.7 °C 9.1 °C 16.7 °C 61% 1018.4 hPa 115 W/m² 0.0 mm 0.000 mm 4.2 km/h
17:55 16.7 °C 8.9 °C 16.7 °C 60% 1018.4 hPa 100 W/m² 0.0 mm 0.000 mm 2.3 km/h
18:00 16.7 °C 9.1 °C 16.7 °C 61% 1018.4 hPa 92 W/m² 0.0 mm 0.076 mm 2.5 km/h
18:05 16.6 °C 9.3 °C 16.6 °C 62% 1018.5 hPa 90 W/m² 0.0 mm 0.000 mm 2.1 km/h
18:10 16.6 °C 9.3 °C 16.6 °C 62% 1018.4 hPa 68 W/m² 0.0 mm 0.000 mm 2.4 km/h
18:15 16.5 °C 9.4 °C 16.5 °C 63% 1018.4 hPa 56 W/m² 0.0 mm 0.000 mm 0.5 km/h
18:20 16.4 °C 9.1 °C 16.4 °C 62% 1018.4 hPa 48 W/m² 0.0 mm 0.000 mm 0.8 km/h
18:25 16.4 °C 8.9 °C 16.4 °C 61% 1018.4 hPa 42 W/m² 0.0 mm 0.000 mm 1.5 km/h
18:30 16.3 °C 9.0 °C 16.3 °C 62% 1018.4 hPa 35 W/m² 0.0 mm 0.000 mm 1.9 km/h
18:35 16.2 °C 9.1 °C 16.2 °C 63% 1018.3 hPa 28 W/m² 0.0 mm 0.000 mm 0.8 km/h
18:40 16.2 °C 9.4 °C 16.2 °C 64% 1018.2 hPa 22 W/m² 0.0 mm 0.000 mm 1.4 km/h
18:45 16.0 °C 9.2 °C 16.0 °C 64% 1018.2 hPa 17 W/m² 0.0 mm 0.000 mm 1.2 km/h
18:50 15.9 °C 9.3 °C 15.9 °C 65% 1018.2 hPa 13 W/m² 0.0 mm 0.000 mm 0.3 km/h
18:55 15.8 °C 9.5 °C 15.8 °C 66% 1018.2 hPa 9 W/m² 0.0 mm 0.000 mm 0.0 km/h
19:00 15.7 °C 9.6 °C 15.7 °C 67% 1018.2 hPa 6 W/m² 0.0 mm 0.025 mm 0.0 km/h
19:05 15.6 °C 9.5 °C 15.6 °C 67% 1018.2 hPa 0 W/m² 0.0 mm 0.000 mm 0.0 km/h
19:10 15.4 °C 9.7 °C 15.4 °C 69% 1018.2 hPa 0 W/m² 0.0 mm 0.000 mm 0.0 km/h
19:15 15.2 °C 9.3 °C 15.2 °C 68% 1018.2 hPa 0 W/m² 0.0 mm 0.000 mm 0.0 km/h
19:20 15.1 °C 9.7 °C 15.1 °C 70% 1018.2 hPa 0 W/m² 0.0 mm 0.000 mm 0.0 km/h
19:25 15.0 °C 10.0 °C 15.0 °C 72% 1018.2 hPa 0 W/m² 0.0 mm 0.000 mm 0.0 km/h
19:30 14.8 °C 10.0 °C 14.8 °C 73% 1018.2 hPa 0 W/m² 0.0 mm 0.000 mm 0.0 km/h
19:35 14.7 °C 9.7 °C 14.7 °C 72% 1018.2 hPa 0 W/m² 0.0 mm 0.000 mm 0.0 km/h
19:40 14.5 °C 9.9 °C 14.5 °C 74% 1018.2 hPa 0 W/m² 0.0 mm 0.000 mm 0.0 km/h
19:45 14.3 °C 9.9 °C 14.3 °C 75% 1018.2 hPa 0 W/m² 0.0 mm 0.000 mm 0.0 km/h
19:50 14.2 °C 9.8 °C 14.2 °C 75% 1018.1 hPa 0 W/m² 0.0 mm 0.000 mm 0.0 km/h
19:55 14.0 °C 9.6 °C 14.0 °C 75% 1018.0 hPa 0 W/m² 0.0 mm 0.000 mm 0.0 km/h
20:00 13.7 °C 9.3 °C 13.7 °C 75% 1017.9 hPa 0 W/m² 0.0 mm 0.000 mm 0.0 km/h
20:05 13.4 °C 9.5 °C 13.4 °C 77% 1017.9 hPa 0 W/m² 0.0 mm 0.000 mm 0.0 km/h
20:10 13.2 °C 9.3 °C 13.2 °C 77% 1017.9 hPa 0 W/m² 0.0 mm 0.000 mm 0.0 km/h
20:15 13.0 °C 9.3 °C 13.0 °C 78% 1017.9 hPa 0 W/m² 0.0 mm 0.000 mm 0.0 km/h
20:20 12.8 °C 9.1 °C 12.8 °C 78% 1017.9 hPa 0 W/m² 0.0 mm 0.000 mm 0.0 km/h
20:25 12.7 °C 9.2 °C 12.7 °C 79% 1017.9 hPa 0 W/m² 0.0 mm 0.000 mm 0.0 km/h
20:30 12.5 °C 9.1 °C 12.5 °C 80% 1017.9 hPa 0 W/m² 0.0 mm 0.000 mm 0.0 km/h
20:35 12.4 °C 9.0 °C 12.4 °C 80% 1017.9 hPa 0 W/m² 0.0 mm 0.000 mm 0.0 km/h
20:40 12.3 °C 9.1 °C 12.3 °C 81% 1018.0 hPa 0 W/m² 0.0 mm 0.000 mm 0.0 km/h
20:45 12.2 °C 9.0 °C 12.2 °C 81% 1018.0 hPa 0 W/m² 0.0 mm 0.000 mm 0.0 km/h
20:50 12.0 °C 8.8 °C 12.0 °C 81% 1018.0 hPa 0 W/m² 0.0 mm 0.000 mm 0.0 km/h
20:55 11.9 °C 8.9 °C 11.9 °C 82% 1018.0 hPa 0 W/m² 0.0 mm 0.000 mm 0.0 km/h
21:00 11.8 °C 8.8 °C 11.8 °C 82% 1018.1 hPa 0 W/m² 0.0 mm 0.026 mm 0.0 km/h
21:05 11.7 °C 8.7 °C 11.7 °C 82% 1018.1 hPa 0 W/m² 0.0 mm 0.000 mm 0.0 km/h
21:10 11.6 °C 8.8 °C 11.6 °C 83% 1018.1 hPa 0 W/m² 0.0 mm 0.000 mm 0.0 km/h
21:15 11.6 °C 9.0 °C 11.6 °C 84% 1018.2 hPa 0 W/m² 0.0 mm 0.000 mm 0.0 km/h
21:20 11.4 °C 9.0 °C 11.4 °C 85% 1018.2 hPa 0 W/m² 0.0 mm 0.000 mm 0.0 km/h
21:25 11.4 °C 9.0 °C 11.4 °C 85% 1018.2 hPa 0 W/m² 0.0 mm 0.000 mm 0.0 km/h
21:30 11.3 °C 8.7 °C 11.3 °C 84% 1018.2 hPa 0 W/m² 0.0 mm 0.000 mm 0.0 km/h
21:35 11.3 °C 8.7 °C 11.3 °C 84% 1018.1 hPa 0 W/m² 0.0 mm 0.000 mm 0.0 km/h
21:40 11.1 °C 8.5 °C 11.1 °C 84% 1018.2 hPa 0 W/m² 0.0 mm 0.000 mm 0.0 km/h
21:45 11.1 °C 8.5 °C 11.1 °C 84% 1018.1 hPa 0 W/m² 0.0 mm 0.000 mm 0.0 km/h
21:50 10.9 °C 8.5 °C 10.9 °C 85% 1018.0 hPa 0 W/m² 0.0 mm 0.000 mm 0.0 km/h
21:55 10.8 °C 8.4 °C 10.8 °C 85% 1018.1 hPa 0 W/m² 0.0 mm 0.000 mm 0.0 km/h
22:00 10.7 °C 8.3 °C 10.7 °C 85% 1018.1 hPa 0 W/m² 0.0 mm 0.000 mm 0.0 km/h
22:05 10.6 °C 8.4 °C 10.6 °C 86% 1018.2 hPa 0 W/m² 0.0 mm 0.000 mm 0.0 km/h
22:10 10.6 °C 8.4 °C 10.6 °C 86% 1018.2 hPa 0 W/m² 0.0 mm 0.000 mm 0.0 km/h
22:15 10.5 °C 8.3 °C 10.5 °C 86% 1018.1 hPa 0 W/m² 0.0 mm 0.000 mm 0.0 km/h
22:20 10.4 °C 8.2 °C 10.4 °C 86% 1018.1 hPa 0 W/m² 0.0 mm 0.000 mm 0.0 km/h
22:25 10.3 °C 8.1 °C 10.3 °C 86% 1018.0 hPa 0 W/m² 0.0 mm 0.000 mm 0.0 km/h
22:30 10.2 °C 8.0 °C 10.2 °C 86% 1018.0 hPa 0 W/m² 0.0 mm 0.000 mm 0.0 km/h
22:35 10.1 °C 7.9 °C 10.1 °C 86% 1017.9 hPa 0 W/m² 0.0 mm 0.000 mm 0.0 km/h
22:40 10.1 °C 8.0 °C 10.1 °C 87% 1018.0 hPa 0 W/m² 0.0 mm 0.000 mm 0.0 km/h
22:45 10.0 °C 7.9 °C 10.0 °C 87% 1017.9 hPa 0 W/m² 0.0 mm 0.000 mm 0.0 km/h
22:50 10.0 °C 8.1 °C 10.0 °C 88% 1017.9 hPa 0 W/m² 0.0 mm 0.000 mm 0.0 km/h
22:55 9.9 °C 8.0 °C 9.9 °C 88% 1017.9 hPa 0 W/m² 0.0 mm 0.000 mm 0.0 km/h
23:00 9.9 °C 8.0 °C 9.9 °C 88% 1017.9 hPa 0 W/m² 0.0 mm 0.000 mm 0.0 km/h
23:05 9.9 °C 8.2 °C 9.9 °C 89% 1017.9 hPa 0 W/m² 0.0 mm 0.000 mm 0.0 km/h
23:10 10.0 °C 8.3 °C 10.0 °C 89% 1017.9 hPa 0 W/m² 0.0 mm 0.000 mm 0.0 km/h
23:15 10.0 °C 8.3 °C 10.0 °C 89% 1017.9 hPa 0 W/m² 0.0 mm 0.000 mm 0.0 km/h
23:20 10.0 °C 8.3 °C 10.0 °C 89% 1017.9 hPa 0 W/m² 0.0 mm 0.000 mm 0.0 km/h
23:25 9.9 °C 8.0 °C 9.9 °C 88% 1017.9 hPa 0 W/m² 0.0 mm 0.000 mm 0.0 km/h
23:30 9.9 °C 8.0 °C 9.9 °C 88% 1017.8 hPa 0 W/m² 0.0 mm 0.000 mm 0.0 km/h
23:35 9.9 °C 8.2 °C 9.9 °C 89% 1017.8 hPa 0 W/m² 0.0 mm 0.000 mm 0.0 km/h
23:40 9.8 °C 8.1 °C 9.8 °C 89% 1017.8 hPa 0 W/m² 0.0 mm 0.000 mm 0.0 km/h
23:45 9.8 °C 8.1 °C 9.8 °C 89% 1017.8 hPa 0 W/m² 0.0 mm 0.000 mm 0.0 km/h
23:50 9.8 °C 8.1 °C 9.8 °C 89% 1017.8 hPa 0 W/m² 0.0 mm 0.000 mm 0.0 km/h
23:55 9.8 °C 8.2 °C 9.8 °C 90% 1017.7 hPa 0 W/m² 0.0 mm 0.000 mm 0.0 km/h